sensor_id;sensor_type;location;lat;lon;timestamp;P1;durP1;ratioP1;P2;durP2;ratioP2
47796;SDS011;33558;50.922;14.068;2024-03-02T00:00:36;34.43;;;24.47;;
47796;SDS011;33558;50.922;14.068;2024-03-02T00:03:05;35.43;;;24.43;;
47796;SDS011;33558;50.922;14.068;2024-03-02T00:05:34;32.93;;;22.90;;
47796;SDS011;33558;50.922;14.068;2024-03-02T00:08:01;40.33;;;27.03;;
47796;SDS011;33558;50.922;14.068;2024-03-02T00:10:31;35.93;;;25.40;;
47796;SDS011;33558;50.922;14.068;2024-03-02T00:13:04;34.80;;;23.10;;
47796;SDS011;33558;50.922;14.068;2024-03-02T00:15:40;30.90;;;25.57;;
47796;SDS011;33558;50.922;14.068;2024-03-02T00:18:11;33.13;;;24.10;;
47796;SDS011;33558;50.922;14.068;2024-03-02T00:20:39;33.13;;;22.77;;
47796;SDS011;33558;50.922;14.068;2024-03-02T00:23:06;30.23;;;23.87;;
47796;SDS011;33558;50.922;14.068;2024-03-02T00:25:40;32.00;;;23.63;;
47796;SDS011;33558;50.922;14.068;2024-03-02T00:28:14;32.27;;;23.37;;
47796;SDS011;33558;50.922;14.068;2024-03-02T00:30:55;34.42;;;24.92;;
47796;SDS011;33558;50.922;14.068;2024-03-02T00:33:25;41.60;;;24.57;;
47796;SDS011;33558;50.922;14.068;2024-03-02T00:35:53;35.10;;;24.10;;
47796;SDS011;33558;50.922;14.068;2024-03-02T00:38:20;35.33;;;25.53;;
47796;SDS011;33558;50.922;14.068;2024-03-02T00:40:47;29.57;;;21.97;;
47796;SDS011;33558;50.922;14.068;2024-03-02T00:43:23;34.03;;;24.50;;
47796;SDS011;33558;50.922;14.068;2024-03-02T00:46:11;37.38;;;24.70;;
47796;SDS011;33558;50.922;14.068;2024-03-02T00:48:39;31.83;;;23.70;;
47796;SDS011;33558;50.922;14.068;2024-03-02T00:51:08;33.57;;;24.00;;
47796;SDS011;33558;50.922;14.068;2024-03-02T00:53:34;32.03;;;21.90;;
47796;SDS011;33558;50.922;14.068;2024-03-02T00:56:01;29.10;;;22.77;;
47796;SDS011;33558;50.922;14.068;2024-03-02T00:58:28;28.30;;;22.30;;
47796;SDS011;33558;50.922;14.068;2024-03-02T01:00:54;32.60;;;23.27;;
47796;SDS011;33558;50.922;14.068;2024-03-02T01:03:21;32.13;;;23.10;;
47796;SDS011;33558;50.922;14.068;2024-03-02T01:05:49;29.67;;;23.47;;
47796;SDS011;33558;50.922;14.068;2024-03-02T01:08:15;28.47;;;22.07;;
47796;SDS011;33558;50.922;14.068;2024-03-02T01:10:42;33.60;;;22.83;;
47796;SDS011;33558;50.922;14.068;2024-03-02T01:13:09;31.33;;;22.40;;
47796;SDS011;33558;50.922;14.068;2024-03-02T01:15:35;29.20;;;20.17;;
47796;SDS011;33558;50.922;14.068;2024-03-02T01:18:02;30.03;;;21.93;;
47796;SDS011;33558;50.922;14.068;2024-03-02T01:20:29;28.00;;;20.07;;
47796;SDS011;33558;50.922;14.068;2024-03-02T01:22:57;30.60;;;21.57;;
47796;SDS011;33558;50.922;14.068;2024-03-02T01:25:23;33.17;;;21.80;;
47796;SDS011;33558;50.922;14.068;2024-03-02T01:27:50;28.77;;;21.60;;
47796;SDS011;33558;50.922;14.068;2024-03-02T01:30:17;34.23;;;23.27;;
47796;SDS011;33558;50.922;14.068;2024-03-02T01:32:44;33.03;;;24.40;;
47796;SDS011;33558;50.922;14.068;2024-03-02T01:35:10;29.65;;;22.15;;
47796;SDS011;33558;50.922;14.068;2024-03-02T01:37:37;30.67;;;22.27;;
47796;SDS011;33558;50.922;14.068;2024-03-02T01:40:05;28.60;;;21.77;;
47796;SDS011;33558;50.922;14.068;2024-03-02T01:42:34;28.30;;;22.23;;
47796;SDS011;33558;50.922;14.068;2024-03-02T01:45:02;30.67;;;21.83;;
47796;SDS011;33558;50.922;14.068;2024-03-02T01:47:29;29.10;;;22.10;;
47796;SDS011;33558;50.922;14.068;2024-03-02T01:49:55;31.90;;;23.17;;
47796;SDS011;33558;50.922;14.068;2024-03-02T01:52:22;34.73;;;23.97;;
47796;SDS011;33558;50.922;14.068;2024-03-02T01:54:48;32.03;;;23.70;;
47796;SDS011;33558;50.922;14.068;2024-03-02T01:57:16;31.00;;;23.10;;
47796;SDS011;33558;50.922;14.068;2024-03-02T01:59:43;35.03;;;21.93;;
47796;SDS011;33558;50.922;14.068;2024-03-02T02:02:10;30.43;;;21.60;;
47796;SDS011;33558;50.922;14.068;2024-03-02T02:04:36;31.97;;;23.17;;
47796;SDS011;33558;50.922;14.068;2024-03-02T02:07:03;30.70;;;23.30;;
47796;SDS011;33558;50.922;14.068;2024-03-02T02:09:31;33.00;;;23.40;;
47796;SDS011;33558;50.922;14.068;2024-03-02T02:11:58;28.83;;;22.37;;
47796;SDS011;33558;50.922;14.068;2024-03-02T02:14:26;30.97;;;22.43;;
47796;SDS011;33558;50.922;14.068;2024-03-02T02:16:53;28.07;;;22.33;;
47796;SDS011;33558;50.922;14.068;2024-03-02T02:19:20;31.33;;;22.92;;
47796;SDS011;33558;50.922;14.068;2024-03-02T02:21:48;30.27;;;21.27;;
47796;SDS011;33558;50.922;14.068;2024-03-02T02:24:15;26.13;;;20.57;;
47796;SDS011;33558;50.922;14.068;2024-03-02T02:26:41;29.73;;;21.53;;
47796;SDS011;33558;50.922;14.068;2024-03-02T02:29:08;32.20;;;22.17;;
47796;SDS011;33558;50.922;14.068;2024-03-02T02:31:37;29.60;;;22.20;;
47796;SDS011;33558;50.922;14.068;2024-03-02T02:34:04;28.37;;;22.23;;
47796;SDS011;33558;50.922;14.068;2024-03-02T02:36:31;34.30;;;24.13;;
47796;SDS011;33558;50.922;14.068;2024-03-02T02:38:59;30.60;;;22.73;;
47796;SDS011;33558;50.922;14.068;2024-03-02T02:41:28;28.80;;;22.63;;
47796;SDS011;33558;50.922;14.068;2024-03-02T02:43:55;32.20;;;23.80;;
47796;SDS011;33558;50.922;14.068;2024-03-02T02:46:21;31.80;;;23.37;;
47796;SDS011;33558;50.922;14.068;2024-03-02T02:48:48;29.00;;;22.93;;
47796;SDS011;33558;50.922;14.068;2024-03-02T02:51:16;28.07;;;21.23;;
47796;SDS011;33558;50.922;14.068;2024-03-02T02:53:43;29.27;;;23.10;;
47796;SDS011;33558;50.922;14.068;2024-03-02T02:56:11;32.07;;;22.87;;
47796;SDS011;33558;50.922;14.068;2024-03-02T02:58:37;28.93;;;22.37;;
47796;SDS011;33558;50.922;14.068;2024-03-02T03:01:05;30.37;;;23.07;;
47796;SDS011;33558;50.922;14.068;2024-03-02T03:03:33;30.57;;;20.63;;
47796;SDS011;33558;50.922;14.068;2024-03-02T03:06:00;31.17;;;22.23;;
47796;SDS011;33558;50.922;14.068;2024-03-02T03:08:27;29.65;;;21.30;;
47796;SDS011;33558;50.922;14.068;2024-03-02T03:10:54;34.67;;;23.10;;
47796;SDS011;33558;50.922;14.068;2024-03-02T03:13:22;30.37;;;23.97;;
47796;SDS011;33558;50.922;14.068;2024-03-02T03:15:48;32.20;;;23.92;;
47796;SDS011;33558;50.922;14.068;2024-03-02T03:18:15;30.17;;;23.47;;
47796;SDS011;33558;50.922;14.068;2024-03-02T03:20:41;28.75;;;22.90;;
47796;SDS011;33558;50.922;14.068;2024-03-02T03:23:08;33.60;;;22.90;;
47796;SDS011;33558;50.922;14.068;2024-03-02T03:25:35;32.73;;;22.77;;
47796;SDS011;33558;50.922;14.068;2024-03-02T03:28:01;31.17;;;22.03;;
47796;SDS011;33558;50.922;14.068;2024-03-02T03:30:29;30.10;;;22.03;;
47796;SDS011;33558;50.922;14.068;2024-03-02T03:32:56;32.47;;;23.60;;
47796;SDS011;33558;50.922;14.068;2024-03-02T03:35:22;32.10;;;22.43;;
47796;SDS011;33558;50.922;14.068;2024-03-02T03:37:49;33.50;;;22.33;;
47796;SDS011;33558;50.922;14.068;2024-03-02T03:40:16;29.50;;;21.90;;
47796;SDS011;33558;50.922;14.068;2024-03-02T03:42:43;31.33;;;21.23;;
47796;SDS011;33558;50.922;14.068;2024-03-02T03:45:10;29.80;;;22.07;;
47796;SDS011;33558;50.922;14.068;2024-03-02T03:47:38;29.93;;;21.63;;
47796;SDS011;33558;50.922;14.068;2024-03-02T03:50:05;29.10;;;21.73;;
47796;SDS011;33558;50.922;14.068;2024-03-02T03:52:32;32.17;;;24.10;;
47796;SDS011;33558;50.922;14.068;2024-03-02T03:54:59;32.42;;;22.55;;
47796;SDS011;33558;50.922;14.068;2024-03-02T03:57:26;31.27;;;23.00;;
47796;SDS011;33558;50.922;14.068;2024-03-02T03:59:52;34.67;;;25.03;;
47796;SDS011;33558;50.922;14.068;2024-03-02T04:02:19;37.50;;;26.30;;
47796;SDS011;33558;50.922;14.068;2024-03-02T04:04:47;36.87;;;23.60;;
47796;SDS011;33558;50.922;14.068;2024-03-02T04:07:14;35.67;;;25.27;;
47796;SDS011;33558;50.922;14.068;2024-03-02T04:09:40;37.93;;;26.63;;
47796;SDS011;33558;50.922;14.068;2024-03-02T04:12:07;39.27;;;25.67;;
47796;SDS011;33558;50.922;14.068;2024-03-02T04:14:34;36.53;;;25.67;;
47796;SDS011;33558;50.922;14.068;2024-03-02T04:17:00;35.20;;;25.30;;
47796;SDS011;33558;50.922;14.068;2024-03-02T04:19:27;38.60;;;23.77;;
47796;SDS011;33558;50.922;14.068;2024-03-02T04:21:55;33.50;;;23.83;;
47796;SDS011;33558;50.922;14.068;2024-03-02T04:24:21;37.03;;;25.27;;
47796;SDS011;33558;50.922;14.068;2024-03-02T04:26:48;41.53;;;26.40;;
47796;SDS011;33558;50.922;14.068;2024-03-02T04:29:15;37.17;;;24.77;;
47796;SDS011;33558;50.922;14.068;2024-03-02T04:31:41;35.50;;;24.27;;
47796;SDS011;33558;50.922;14.068;2024-03-02T04:34:08;34.53;;;24.47;;
47796;SDS011;33558;50.922;14.068;2024-03-02T04:36:35;38.90;;;25.20;;
47796;SDS011;33558;50.922;14.068;2024-03-02T04:39:03;40.57;;;26.47;;
47796;SDS011;33558;50.922;14.068;2024-03-02T04:41:34;44.67;;;26.63;;
47796;SDS011;33558;50.922;14.068;2024-03-02T04:44:01;42.13;;;26.53;;
47796;SDS011;33558;50.922;14.068;2024-03-02T04:46:28;44.67;;;27.60;;
47796;SDS011;33558;50.922;14.068;2024-03-02T04:48:54;52.00;;;30.80;;
47796;SDS011;33558;50.922;14.068;2024-03-02T04:51:22;52.97;;;31.40;;
47796;SDS011;33558;50.922;14.068;2024-03-02T04:53:48;48.23;;;29.87;;
47796;SDS011;33558;50.922;14.068;2024-03-02T04:56:16;47.67;;;29.77;;
47796;SDS011;33558;50.922;14.068;2024-03-02T04:59:04;53.73;;;30.67;;
47796;SDS011;33558;50.922;14.068;2024-03-02T05:01:31;49.53;;;28.97;;
47796;SDS011;33558;50.922;14.068;2024-03-02T05:03:58;55.73;;;31.80;;
47796;SDS011;33558;50.922;14.068;2024-03-02T05:06:24;52.77;;;29.77;;
47796;SDS011;33558;50.922;14.068;2024-03-02T05:08:51;56.97;;;32.03;;
47796;SDS011;33558;50.922;14.068;2024-03-02T05:11:19;62.03;;;35.53;;
47796;SDS011;33558;50.922;14.068;2024-03-02T05:14:07;67.73;;;34.23;;
47796;SDS011;33558;50.922;14.068;2024-03-02T05:16:34;66.87;;;36.47;;
47796;SDS011;33558;50.922;14.068;2024-03-02T05:19:03;63.80;;;34.27;;
47796;SDS011;33558;50.922;14.068;2024-03-02T05:21:31;69.10;;;37.17;;
47796;SDS011;33558;50.922;14.068;2024-03-02T05:23:58;58.80;;;33.50;;
47796;SDS011;33558;50.922;14.068;2024-03-02T05:26:26;61.13;;;34.63;;
47796;SDS011;33558;50.922;14.068;2024-03-02T05:28:53;59.47;;;32.80;;
47796;SDS011;33558;50.922;14.068;2024-03-02T05:31:19;59.63;;;33.80;;
47796;SDS011;33558;50.922;14.068;2024-03-02T05:33:46;62.23;;;33.67;;
47796;SDS011;33558;50.922;14.068;2024-03-02T05:36:13;59.53;;;33.43;;
47796;SDS011;33558;50.922;14.068;2024-03-02T05:38:39;65.07;;;35.83;;
47796;SDS011;33558;50.922;14.068;2024-03-02T05:41:06;70.20;;;37.43;;
47796;SDS011;33558;50.922;14.068;2024-03-02T05:43:34;64.67;;;35.73;;
47796;SDS011;33558;50.922;14.068;2024-03-02T05:46:01;67.25;;;37.50;;
47796;SDS011;33558;50.922;14.068;2024-03-02T05:48:28;67.60;;;36.00;;
47796;SDS011;33558;50.922;14.068;2024-03-02T05:50:55;69.63;;;38.60;;
47796;SDS011;33558;50.922;14.068;2024-03-02T05:53:22;68.03;;;37.07;;
47796;SDS011;33558;50.922;14.068;2024-03-02T05:55:49;68.33;;;37.60;;
47796;SDS011;33558;50.922;14.068;2024-03-02T05:58:18;67.70;;;36.73;;
47796;SDS011;33558;50.922;14.068;2024-03-02T06:00:57;77.20;;;38.97;;
47796;SDS011;33558;50.922;14.068;2024-03-02T06:03:24;74.37;;;40.60;;
47796;SDS011;33558;50.922;14.068;2024-03-02T06:05:51;68.77;;;37.97;;
47796;SDS011;33558;50.922;14.068;2024-03-02T06:08:17;68.23;;;38.80;;
47796;SDS011;33558;50.922;14.068;2024-03-02T06:10:44;71.10;;;40.80;;
47796;SDS011;33558;50.922;14.068;2024-03-02T06:13:11;71.68;;;38.05;;
47796;SDS011;33558;50.922;14.068;2024-03-02T06:15:37;78.53;;;41.10;;
47796;SDS011;33558;50.922;14.068;2024-03-02T06:18:05;80.07;;;39.97;;
47796;SDS011;33558;50.922;14.068;2024-03-02T06:20:33;72.00;;;38.40;;
47796;SDS011;33558;50.922;14.068;2024-03-02T06:22:59;70.07;;;39.43;;
47796;SDS011;33558;50.922;14.068;2024-03-02T06:25:26;69.63;;;36.97;;
47796;SDS011;33558;50.922;14.068;2024-03-02T06:27:53;72.25;;;38.50;;
47796;SDS011;33558;50.922;14.068;2024-03-02T06:30:19;75.07;;;39.25;;
47796;SDS011;33558;50.922;14.068;2024-03-02T06:32:47;69.97;;;38.40;;
47796;SDS011;33558;50.922;14.068;2024-03-02T06:35:14;65.53;;;35.33;;
47796;SDS011;33558;50.922;14.068;2024-03-02T06:37:40;69.07;;;35.73;;
47796;SDS011;33558;50.922;14.068;2024-03-02T06:40:07;63.43;;;36.93;;
47796;SDS011;33558;50.922;14.068;2024-03-02T06:42:35;64.80;;;35.47;;
47796;SDS011;33558;50.922;14.068;2024-03-02T06:45:01;69.67;;;36.97;;
47796;SDS011;33558;50.922;14.068;2024-03-02T06:47:29;69.17;;;35.67;;
47796;SDS011;33558;50.922;14.068;2024-03-02T06:49:56;64.90;;;35.10;;
47796;SDS011;33558;50.922;14.068;2024-03-02T06:52:25;62.40;;;35.40;;
47796;SDS011;33558;50.922;14.068;2024-03-02T06:54:51;64.83;;;35.33;;
47796;SDS011;33558;50.922;14.068;2024-03-02T06:57:18;64.63;;;36.63;;
47796;SDS011;33558;50.922;14.068;2024-03-02T06:59:46;66.40;;;35.53;;
47796;SDS011;33558;50.922;14.068;2024-03-02T07:02:13;65.07;;;34.60;;
47796;SDS011;33558;50.922;14.068;2024-03-02T07:04:40;61.33;;;33.47;;
47796;SDS011;33558;50.922;14.068;2024-03-02T07:07:07;60.33;;;33.97;;
47796;SDS011;33558;50.922;14.068;2024-03-02T07:09:35;66.73;;;33.50;;
47796;SDS011;33558;50.922;14.068;2024-03-02T07:12:01;58.47;;;32.80;;
47796;SDS011;33558;50.922;14.068;2024-03-02T07:14:28;58.00;;;32.77;;
47796;SDS011;33558;50.922;14.068;2024-03-02T07:17:08;61.37;;;32.80;;
47796;SDS011;33558;50.922;14.068;2024-03-02T07:19:36;62.20;;;33.13;;
47796;SDS011;33558;50.922;14.068;2024-03-02T07:22:05;59.70;;;32.00;;
47796;SDS011;33558;50.922;14.068;2024-03-02T07:24:32;69.97;;;34.17;;
47796;SDS011;33558;50.922;14.068;2024-03-02T07:27:00;62.37;;;32.50;;
47796;SDS011;33558;50.922;14.068;2024-03-02T07:29:27;66.28;;;34.80;;
47796;SDS011;33558;50.922;14.068;2024-03-02T07:31:54;64.97;;;35.30;;
47796;SDS011;33558;50.922;14.068;2024-03-02T07:34:20;64.73;;;33.87;;
47796;SDS011;33558;50.922;14.068;2024-03-02T07:36:47;63.63;;;34.17;;
47796;SDS011;33558;50.922;14.068;2024-03-02T07:39:14;63.30;;;35.13;;
47796;SDS011;33558;50.922;14.068;2024-03-02T07:41:42;65.68;;;34.65;;
47796;SDS011;33558;50.922;14.068;2024-03-02T07:44:09;65.95;;;33.20;;
47796;SDS011;33558;50.922;14.068;2024-03-02T07:46:39;59.00;;;31.63;;
47796;SDS011;33558;50.922;14.068;2024-03-02T07:49:06;64.40;;;34.40;;
47796;SDS011;33558;50.922;14.068;2024-03-02T07:51:32;65.63;;;33.30;;
47796;SDS011;33558;50.922;14.068;2024-03-02T07:53:59;63.60;;;32.27;;
47796;SDS011;33558;50.922;14.068;2024-03-02T07:56:26;65.18;;;34.85;;
47796;SDS011;33558;50.922;14.068;2024-03-02T07:58:54;69.70;;;35.15;;
47796;SDS011;33558;50.922;14.068;2024-03-02T08:01:22;69.93;;;33.97;;
47796;SDS011;33558;50.922;14.068;2024-03-02T08:03:49;61.55;;;31.52;;
47796;SDS011;33558;50.922;14.068;2024-03-02T08:06:18;62.80;;;32.22;;
47796;SDS011;33558;50.922;14.068;2024-03-02T08:08:46;60.35;;;32.00;;
47796;SDS011;33558;50.922;14.068;2024-03-02T08:11:13;63.30;;;33.83;;
47796;SDS011;33558;50.922;14.068;2024-03-02T08:13:39;58.75;;;32.00;;
47796;SDS011;33558;50.922;14.068;2024-03-02T08:16:07;59.83;;;31.87;;
47796;SDS011;33558;50.922;14.068;2024-03-02T08:18:34;60.03;;;32.72;;
47796;SDS011;33558;50.922;14.068;2024-03-02T08:21:01;62.45;;;32.47;;
47796;SDS011;33558;50.922;14.068;2024-03-02T08:23:28;63.22;;;32.30;;
47796;SDS011;33558;50.922;14.068;2024-03-02T08:25:54;54.78;;;30.27;;
47796;SDS011;33558;50.922;14.068;2024-03-02T08:28:21;55.65;;;30.08;;
47796;SDS011;33558;50.922;14.068;2024-03-02T08:30:47;54.33;;;30.95;;
47796;SDS011;33558;50.922;14.068;2024-03-02T08:33:15;57.07;;;31.70;;
47796;SDS011;33558;50.922;14.068;2024-03-02T08:35:42;57.05;;;30.65;;
47796;SDS011;33558;50.922;14.068;2024-03-02T08:38:09;51.88;;;27.48;;
47796;SDS011;33558;50.922;14.068;2024-03-02T08:40:36;56.65;;;30.15;;
47796;SDS011;33558;50.922;14.068;2024-03-02T08:43:02;52.97;;;27.77;;
47796;SDS011;33558;50.922;14.068;2024-03-02T08:45:29;55.75;;;29.60;;
47796;SDS011;33558;50.922;14.068;2024-03-02T08:47:56;53.97;;;29.23;;
47796;SDS011;33558;50.922;14.068;2024-03-02T08:50:24;53.35;;;29.83;;
47796;SDS011;33558;50.922;14.068;2024-03-02T08:52:50;56.80;;;29.05;;
47796;SDS011;33558;50.922;14.068;2024-03-02T08:55:17;51.90;;;28.00;;
47796;SDS011;33558;50.922;14.068;2024-03-02T08:57:44;49.90;;;27.63;;
47796;SDS011;33558;50.922;14.068;2024-03-02T09:00:11;56.00;;;29.13;;
47796;SDS011;33558;50.922;14.068;2024-03-02T09:02:38;52.88;;;29.23;;
47796;SDS011;33558;50.922;14.068;2024-03-02T09:05:05;50.45;;;28.00;;
47796;SDS011;33558;50.922;14.068;2024-03-02T09:07:33;53.53;;;28.25;;
47796;SDS011;33558;50.922;14.068;2024-03-02T09:10:00;54.33;;;28.73;;
47796;SDS011;33558;50.922;14.068;2024-03-02T09:12:26;50.92;;;29.02;;
47796;SDS011;33558;50.922;14.068;2024-03-02T09:14:53;51.70;;;29.52;;
47796;SDS011;33558;50.922;14.068;2024-03-02T09:17:20;53.60;;;28.40;;
47796;SDS011;33558;50.922;14.068;2024-03-02T09:19:47;50.45;;;28.05;;
47796;SDS011;33558;50.922;14.068;2024-03-02T09:22:13;54.63;;;29.20;;
47796;SDS011;33558;50.922;14.068;2024-03-02T09:24:41;51.15;;;27.92;;
47796;SDS011;33558;50.922;14.068;2024-03-02T09:27:08;45.13;;;27.67;;
47796;SDS011;33558;50.922;14.068;2024-03-02T09:29:34;45.03;;;27.20;;
47796;SDS011;33558;50.922;14.068;2024-03-02T09:32:01;46.03;;;27.08;;
47796;SDS011;33558;50.922;14.068;2024-03-02T09:34:28;39.42;;;23.45;;
47796;SDS011;33558;50.922;14.068;2024-03-02T09:36:54;32.70;;;21.25;;
47796;SDS011;33558;50.922;14.068;2024-03-02T09:39:21;35.08;;;21.90;;
47796;SDS011;33558;50.922;14.068;2024-03-02T09:41:49;32.63;;;20.85;;
47796;SDS011;33558;50.922;14.068;2024-03-02T09:44:15;35.10;;;22.23;;
47796;SDS011;33558;50.922;14.068;2024-03-02T09:46:42;34.08;;;20.77;;
47796;SDS011;33558;50.922;14.068;2024-03-02T09:49:09;34.72;;;20.92;;
47796;SDS011;33558;50.922;14.068;2024-03-02T09:51:36;31.90;;;20.85;;
47796;SDS011;33558;50.922;14.068;2024-03-02T09:54:03;32.55;;;20.60;;
47796;SDS011;33558;50.922;14.068;2024-03-02T09:56:30;33.08;;;20.75;;
47796;SDS011;33558;50.922;14.068;2024-03-02T09:58:58;31.25;;;19.77;;
47796;SDS011;33558;50.922;14.068;2024-03-02T10:01:25;32.80;;;20.95;;
47796;SDS011;33558;50.922;14.068;2024-03-02T10:03:52;30.13;;;19.23;;
47796;SDS011;33558;50.922;14.068;2024-03-02T10:06:19;30.30;;;19.40;;
47796;SDS011;33558;50.922;14.068;2024-03-02T10:08:47;32.30;;;19.58;;
47796;SDS011;33558;50.922;14.068;2024-03-02T10:11:25;28.10;;;18.13;;
47796;SDS011;33558;50.922;14.068;2024-03-02T10:14:04;34.10;;;18.70;;
47796;SDS011;33558;50.922;14.068;2024-03-02T10:16:33;26.83;;;17.40;;
47796;SDS011;33558;50.922;14.068;2024-03-02T10:19:12;26.20;;;16.88;;
47796;SDS011;33558;50.922;14.068;2024-03-02T10:21:41;25.85;;;15.45;;
47796;SDS011;33558;50.922;14.068;2024-03-02T10:24:08;24.52;;;14.63;;
47796;SDS011;33558;50.922;14.068;2024-03-02T10:26:34;23.38;;;13.85;;
47796;SDS011;33558;50.922;14.068;2024-03-02T10:29:01;20.98;;;13.63;;
47796;SDS011;33558;50.922;14.068;2024-03-02T10:31:29;18.35;;;13.35;;
47796;SDS011;33558;50.922;14.068;2024-03-02T10:33:57;21.30;;;14.23;;
47796;SDS011;33558;50.922;14.068;2024-03-02T10:36:24;21.25;;;14.05;;
47796;SDS011;33558;50.922;14.068;2024-03-02T10:38:51;24.75;;;14.82;;
47796;SDS011;33558;50.922;14.068;2024-03-02T10:41:20;24.98;;;15.80;;
47796;SDS011;33558;50.922;14.068;2024-03-02T10:43:50;21.10;;;14.18;;
47796;SDS011;33558;50.922;14.068;2024-03-02T10:46:17;26.88;;;16.00;;
47796;SDS011;33558;50.922;14.068;2024-03-02T10:48:47;27.23;;;17.40;;
47796;SDS011;33558;50.922;14.068;2024-03-02T10:51:14;26.17;;;16.90;;
47796;SDS011;33558;50.922;14.068;2024-03-02T10:53:41;23.20;;;14.40;;
47796;SDS011;33558;50.922;14.068;2024-03-02T10:56:08;17.73;;;12.55;;
47796;SDS011;33558;50.922;14.068;2024-03-02T10:58:35;20.35;;;13.93;;
47796;SDS011;33558;50.922;14.068;2024-03-02T11:01:03;19.30;;;13.50;;
47796;SDS011;33558;50.922;14.068;2024-03-02T11:03:33;19.23;;;13.55;;
47796;SDS011;33558;50.922;14.068;2024-03-02T11:06:03;20.90;;;12.95;;
47796;SDS011;33558;50.922;14.068;2024-03-02T11:08:34;21.98;;;13.00;;
47796;SDS011;33558;50.922;14.068;2024-03-02T11:11:02;22.50;;;13.25;;
47796;SDS011;33558;50.922;14.068;2024-03-02T11:13:32;19.08;;;12.57;;
47796;SDS011;33558;50.922;14.068;2024-03-02T11:16:02;15.80;;;11.13;;
47796;SDS011;33558;50.922;14.068;2024-03-02T11:18:31;22.52;;;12.45;;
47796;SDS011;33558;50.922;14.068;2024-03-02T11:20:58;22.40;;;13.15;;
47796;SDS011;33558;50.922;14.068;2024-03-02T11:23:32;25.10;;;15.95;;
47796;SDS011;33558;50.922;14.068;2024-03-02T11:26:18;18.48;;;12.70;;
47796;SDS011;33558;50.922;14.068;2024-03-02T11:28:45;22.43;;;14.23;;
47796;SDS011;33558;50.922;14.068;2024-03-02T11:31:12;19.65;;;13.05;;
47796;SDS011;33558;50.922;14.068;2024-03-02T11:33:39;19.80;;;12.65;;
47796;SDS011;33558;50.922;14.068;2024-03-02T11:36:06;26.65;;;14.13;;
47796;SDS011;33558;50.922;14.068;2024-03-02T11:38:34;24.15;;;12.95;;
47796;SDS011;33558;50.922;14.068;2024-03-02T11:41:02;20.55;;;12.90;;
47796;SDS011;33558;50.922;14.068;2024-03-02T11:43:32;19.77;;;12.48;;
47796;SDS011;33558;50.922;14.068;2024-03-02T11:45:59;17.42;;;10.63;;
47796;SDS011;33558;50.922;14.068;2024-03-02T11:48:29;23.52;;;12.73;;
47796;SDS011;33558;50.922;14.068;2024-03-02T11:50:57;18.58;;;10.50;;
47796;SDS011;33558;50.922;14.068;2024-03-02T11:53:24;16.92;;;10.18;;
47796;SDS011;33558;50.922;14.068;2024-03-02T11:55:55;16.60;;;10.30;;
47796;SDS011;33558;50.922;14.068;2024-03-02T11:58:22;16.10;;;8.40;;
47796;SDS011;33558;50.922;14.068;2024-03-02T12:00:51;15.43;;;9.30;;
47796;SDS011;33558;50.922;14.068;2024-03-02T12:03:18;13.68;;;8.65;;
47796;SDS011;33558;50.922;14.068;2024-03-02T12:05:49;15.65;;;8.35;;
47796;SDS011;33558;50.922;14.068;2024-03-02T12:08:15;11.52;;;8.20;;
47796;SDS011;33558;50.922;14.068;2024-03-02T12:10:42;13.70;;;8.80;;
47796;SDS011;33558;50.922;14.068;2024-03-02T12:13:11;16.48;;;9.07;;
47796;SDS011;33558;50.922;14.068;2024-03-02T12:15:38;16.00;;;9.55;;
47796;SDS011;33558;50.922;14.068;2024-03-02T12:18:05;16.92;;;10.18;;
47796;SDS011;33558;50.922;14.068;2024-03-02T12:20:33;19.02;;;9.65;;
47796;SDS011;33558;50.922;14.068;2024-03-02T12:23:00;19.52;;;9.07;;
47796;SDS011;33558;50.922;14.068;2024-03-02T12:25:27;16.88;;;10.23;;
47796;SDS011;33558;50.922;14.068;2024-03-02T12:27:55;19.77;;;10.48;;
47796;SDS011;33558;50.922;14.068;2024-03-02T12:30:24;17.00;;;11.07;;
47796;SDS011;33558;50.922;14.068;2024-03-02T12:32:53;19.02;;;11.32;;
47796;SDS011;33558;50.922;14.068;2024-03-02T12:35:20;17.10;;;10.35;;
47796;SDS011;33558;50.922;14.068;2024-03-02T12:37:47;19.00;;;11.82;;
47796;SDS011;33558;50.922;14.068;2024-03-02T12:40:15;17.83;;;10.77;;
47796;SDS011;33558;50.922;14.068;2024-03-02T12:42:43;18.13;;;11.52;;
47796;SDS011;33558;50.922;14.068;2024-03-02T12:45:10;19.50;;;12.25;;
47796;SDS011;33558;50.922;14.068;2024-03-02T12:47:39;17.75;;;10.10;;
47796;SDS011;33558;50.922;14.068;2024-03-02T12:50:06;16.40;;;10.43;;
47796;SDS011;33558;50.922;14.068;2024-03-02T12:52:33;21.50;;;10.77;;
47796;SDS011;33558;50.922;14.068;2024-03-02T12:55:01;19.58;;;11.25;;
47796;SDS011;33558;50.922;14.068;2024-03-02T12:57:29;16.48;;;10.57;;
47796;SDS011;33558;50.922;14.068;2024-03-02T12:59:59;16.63;;;9.65;;
47796;SDS011;33558;50.922;14.068;2024-03-02T13:02:27;15.90;;;9.48;;
47796;SDS011;33558;50.922;14.068;2024-03-02T13:04:56;16.10;;;9.18;;
47796;SDS011;33558;50.922;14.068;2024-03-02T13:07:24;14.70;;;9.30;;
47796;SDS011;33558;50.922;14.068;2024-03-02T13:09:50;18.35;;;9.65;;
47796;SDS011;33558;50.922;14.068;2024-03-02T13:12:16;15.70;;;9.52;;
47796;SDS011;33558;50.922;14.068;2024-03-02T13:14:43;18.00;;;9.48;;
47796;SDS011;33558;50.922;14.068;2024-03-02T13:17:10;14.52;;;8.98;;
47796;SDS011;33558;50.922;14.068;2024-03-02T13:19:42;16.23;;;9.75;;
47796;SDS011;33558;50.922;14.068;2024-03-02T13:22:11;14.27;;;8.73;;
47796;SDS011;33558;50.922;14.068;2024-03-02T13:24:38;14.48;;;8.95;;
47796;SDS011;33558;50.922;14.068;2024-03-02T13:27:07;14.70;;;9.43;;
47796;SDS011;33558;50.922;14.068;2024-03-02T13:29:34;17.88;;;9.63;;
47796;SDS011;33558;50.922;14.068;2024-03-02T13:32:01;14.32;;;9.48;;
47796;SDS011;33558;50.922;14.068;2024-03-02T13:34:27;16.02;;;10.43;;
47796;SDS011;33558;50.922;14.068;2024-03-02T13:36:54;15.88;;;9.48;;
47796;SDS011;33558;50.922;14.068;2024-03-02T13:39:22;16.60;;;10.15;;
47796;SDS011;33558;50.922;14.068;2024-03-02T13:41:49;15.13;;;10.13;;
47796;SDS011;33558;50.922;14.068;2024-03-02T13:44:22;17.20;;;10.15;;
47796;SDS011;33558;50.922;14.068;2024-03-02T13:46:49;19.20;;;10.00;;
47796;SDS011;33558;50.922;14.068;2024-03-02T13:49:16;18.55;;;10.52;;
47796;SDS011;33558;50.922;14.068;2024-03-02T13:51:44;15.63;;;9.80;;
47796;SDS011;33558;50.922;14.068;2024-03-02T13:54:11;16.00;;;10.85;;
47796;SDS011;33558;50.922;14.068;2024-03-02T13:56:39;16.70;;;10.35;;
47796;SDS011;33558;50.922;14.068;2024-03-02T13:59:06;14.52;;;10.52;;
47796;SDS011;33558;50.922;14.068;2024-03-02T14:01:33;17.80;;;11.05;;
47796;SDS011;33558;50.922;14.068;2024-03-02T14:04:00;16.55;;;10.73;;
47796;SDS011;33558;50.922;14.068;2024-03-02T14:06:27;14.80;;;11.02;;
47796;SDS011;33558;50.922;14.068;2024-03-02T14:08:53;18.15;;;11.60;;
47796;SDS011;33558;50.922;14.068;2024-03-02T14:11:20;22.52;;;12.27;;
47796;SDS011;33558;50.922;14.068;2024-03-02T14:13:48;17.15;;;11.23;;